Time;durP1;ratioP1;P1;durP2;ratioP2;P2;SDS_P1;SDS_P2;PMS_P1;PMS_P2;Temp;Humidity;BMP_temperature;BMP_pressure;BME280_temperature;BME280_humidity;BME280_pressure;Samples;Min_cycle;Max_cycle;Signal;HPM_P1;HPM_P2
2021/09/28 00:46:45;;;;;;;22.98;3.58;;;;;;;11.75;99.77;102191.78;4904516;29;20167;-87
2021/09/28 00:50:12;;;;;;;;;;;;;;;;;;;;;
2021/09/28 02:55:48;;;;;;;;;;;;;;;;;;;;;
2021/09/28 05:39:55;;;;;;;19.23;3.33;;;;;;;11.05;100.00;102305.25;4700030;30;20050;-83
2021/09/28 05:42:23;;;;;;;19.58;2.47;;;;;;;11.05;100.00;102310.53;4759759;30;20044;-80
2021/09/28 05:45:14;;;;;;;18.67;3.42;;;;;;;11.05;100.00;102317.53;4787004;29;20120;-79
2021/09/28 05:47:57;;;;;;;;;;;;;;;;;;;;;
2021/09/28 05:51:09;;;;;;;19.48;3.63;;;;;;;11.08;100.00;102312.38;4918453;29;20047;-78
2021/09/28 05:54:19;;;;;;;12.05;3.38;;;;;;;11.12;100.00;102316.91;5051292;28;20074;-80
2021/09/28 05:57:00;;;;;;;14.80;2.90;;;;;;;11.13;100.00;102318.72;5052733;28;20115;-81
2021/09/28 05:59:36;;;;;;;21.15;3.60;;;;;;;11.11;100.00;102320.41;5028815;28;20049;-80
2021/09/28 06:02:07;;;;;;;20.35;3.58;;;;;;;11.09;100.00;102316.81;5054626;28;20170;-80
2021/09/28 06:04:58;;;;;;;13.35;3.15;;;;;;;11.12;100.00;102316.91;5050443;28;20464;-81
2021/09/28 06:08:04;;;;;;;11.60;2.65;;;;;;;11.13;100.00;102322.25;5051238;28;20167;-83
2021/09/28 06:10:42;;;;;;;17.85;3.65;;;;;;;11.13;100.00;102329.25;5051711;28;20039;-78
2021/09/28 06:13:08;;;;;;;21.20;3.10;;;;;;;11.17;100.00;102325.03;5051259;28;20029;-80
2021/09/28 06:15:53;;;;;;;19.75;3.67;;;;;;;11.20;100.00;102325.13;5053256;28;20459;-81
2021/09/28 06:18:22;;;;;;;14.73;3.50;;;;;;;11.19;100.00;102325.97;5050498;28;20033;-82
2021/09/28 06:21:08;;;;;;;26.23;3.85;;;;;;;11.20;100.00;102323.38;5051247;28;20024;-81
2021/09/28 06:23:34;;;;;;;19.08;3.53;;;;;;;11.25;100.00;102318.28;5052259;28;20124;-78
2021/09/28 06:26:02;;;;;;;16.23;3.40;;;;;;;11.29;100.00;102325.47;5051536;28;20681;-79
2021/09/28 06:28:50;;;;;;;16.70;3.90;;;;;;;11.27;100.00;102327.13;5051912;28;20021;-82
2021/09/28 06:31:15;;;;;;;17.63;3.53;;;;;;;11.33;100.00;102327.38;5053407;28;20091;-80
2021/09/28 06:33:41;;;;;;;17.08;3.33;;;;;;;11.35;100.00;102330.06;5050549;28;20463;-77
2021/09/28 06:36:06;;;;;;;15.93;3.65;;;;;;;11.37;100.00;102328.41;5051761;28;20024;-78
2021/09/28 06:38:31;;;;;;;15.73;3.35;;;;;;;11.40;100.00;102324.13;5051955;28;20479;-77
2021/09/28 06:40:58;;;;;;;21.23;4.00;;;;;;;11.43;100.00;102329.50;5052009;28;20020;-78
2021/09/28 06:43:24;;;;;;;19.77;4.18;;;;;;;11.51;100.00;102331.53;5049883;28;20487;-80
2021/09/28 06:45:50;;;;;;;14.30;3.05;;;;;;;11.56;100.00;102335.25;5049798;28;20021;-78
2021/09/28 06:48:16;;;;;;;19.08;3.15;;;;;;;11.61;100.00;102325.75;5049814;28;20110;-80
2021/09/28 06:50:42;;;;;;;17.80;3.65;;;;;;;11.65;100.00;102332.94;5051093;28;20055;-78
2021/09/28 06:53:07;;;;;;;15.10;3.08;;;;;;;11.72;100.00;102326.13;5066074;28;20526;-78
2021/09/28 06:55:55;;;;;;;19.48;4.00;;;;;;;11.76;99.63;102334.22;5051997;28;20033;-78
2021/09/28 06:58:21;;;;;;;12.13;3.10;;;;;;;11.82;98.98;102329.16;5057207;28;20102;-79
2021/09/28 07:01:06;;;;;;;15.32;3.08;;;;;;;11.91;98.98;102343.50;5053819;28;20032;-81
2021/09/28 07:03:34;;;;;;;13.13;3.78;;;;;;;11.96;98.30;102321.78;5048846;28;20028;-80
2021/09/28 07:06:00;;;;;;;17.55;3.17;;;;;;;12.03;98.34;102317.63;5051757;28;20486;-77
2021/09/28 07:08:31;;;;;;;18.85;4.25;;;;;;;12.07;98.10;102324.78;5050311;28;20032;-80
2021/09/28 07:11:02;;;;;;;8.90;2.97;;;;;;;12.10;97.83;102322.25;5040096;28;20335;-80
2021/09/28 07:13:37;;;;;;;12.43;2.55;;;;;;;12.11;97.33;102317.84;5047502;28;20028;-82
2021/09/28 07:16:05;;;;;;;15.70;3.53;;;;;;;12.19;97.75;102328.69;5050274;28;20033;-80
2021/09/28 07:18:31;;;;;;;16.70;3.17;;;;;;;12.24;97.66;102327.09;5048328;28;20025;-81
2021/09/28 07:21:04;;;;;;;14.77;3.40;;;;;;;12.30;97.51;102333.47;5044031;28;20056;-81
2021/09/28 07:23:47;;;;;;;16.13;3.38;;;;;;;12.35;96.83;102336.25;5048934;28;20053;-82
2021/09/28 07:26:35;;;;;;;15.43;2.50;;;;;;;12.42;96.71;102340.00;5048775;28;20041;-79
2021/09/28 07:29:06;;;;;;;17.17;3.88;;;;;;;12.48;96.63;102340.22;5032175;28;20037;-80
2021/09/28 07:31:35;;;;;;;18.63;3.88;;;;;;;12.52;95.27;102349.13;5046044;28;20045;-79
2021/09/28 07:34:00;;;;;;;17.80;3.38;;;;;;;12.60;95.88;102347.63;5055099;28;20033;-79
2021/09/28 07:36:26;;;;;;;7.65;3.20;;;;;;;12.69;96.47;102347.03;5049963;28;20396;-85
2021/09/28 07:39:01;;;;;;;15.35;3.05;;;;;;;12.81;95.80;102347.41;5048887;28;20488;-80
2021/09/28 07:41:27;;;;;;;15.07;3.30;;;;;;;12.94;95.21;102354.88;5050733;28;20051;-81
2021/09/28 07:43:55;;;;;;;14.65;3.38;;;;;;;13.06;93.55;102338.53;5050168;28;20058;-82
2021/09/28 07:46:20;;;;;;;15.77;3.58;;;;;;;13.19;93.43;102342.41;5047664;28;20049;-81
2021/09/28 07:48:51;;;;;;;9.55;3.28;;;;;;;13.31;92.88;102336.59;5049857;28;20047;-80
2021/09/28 07:51:17;;;;;;;21.60;3.55;;;;;;;13.41;92.91;102343.97;5050912;28;20051;-82
2021/09/28 07:53:46;;;;;;;11.60;3.08;;;;;;;13.48;92.52;102350.31;5049644;28;20024;-83
2021/09/28 07:56:15;;;;;;;16.50;3.60;;;;;;;13.49;91.01;102334.50;5050137;28;20024;-79
2021/09/28 07:59:07;;;;;;;17.48;3.47;;;;;;;13.49;91.01;102345.06;5047834;28;20398;-82
2021/09/28 08:01:33;;;;;;;13.85;2.90;;;;;;;13.45;91.18;102353.78;5048343;28;20041;-80
2021/09/28 08:04:21;;;;;;;14.98;2.90;;;;;;;13.43;91.30;102349.28;5048677;28;20032;-78
2021/09/28 08:06:47;;;;;;;13.73;3.00;;;;;;;13.46;91.67;102352.94;5051368;28;20174;-80
2021/09/28 08:09:16;;;;;;;12.00;2.75;;;;;;;13.51;91.59;102349.53;5049729;28;20048;-81
2021/09/28 08:12:02;;;;;;;14.52;2.92;;;;;;;13.58;91.97;102349.75;5028470;28;20133;-80
2021/09/28 08:14:27;;;;;;;13.85;2.58;;;;;;;13.64;92.18;102349.03;5052057;28;20029;-80
2021/09/28 08:16:53;;;;;;;9.98;2.72;;;;;;;13.70;91.07;102346.56;5045671;28;20070;-80
2021/09/28 08:19:19;;;;;;;14.32;3.00;;;;;;;13.79;91.73;102344.16;5050551;28;20092;-81
2021/09/28 08:21:45;;;;;;;12.00;3.28;;;;;;;13.82;89.05;102346.91;5049582;28;20436;-80
2021/09/28 08:24:11;;;;;;;12.57;2.85;;;;;;;13.90;90.68;102349.72;5053233;28;20036;-82
2021/09/28 08:29:30;;;;;;;13.23;2.65;;;;;;;14.07;89.63;102350.19;5051775;28;20040;-79
2021/09/28 08:31:55;;;;;;;10.13;2.50;;;;;;;14.14;88.86;102351.25;5050545;28;20044;-81
2021/09/28 08:34:21;;;;;;;12.40;2.40;;;;;;;14.16;87.47;102350.44;5055522;28;20025;-80
2021/09/28 08:36:47;;;;;;;15.70;2.65;;;;;;;14.23;88.06;102350.59;5051302;28;20025;-79
2021/09/28 08:39:17;;;;;;;21.05;3.20;;;;;;;14.33;87.93;102357.91;5056278;28;20020;-79
2021/09/28 08:42:02;;;;;;;12.25;3.67;;;;;;;14.41;87.25;102359.00;5051732;28;20040;-81
2021/09/28 08:44:30;;;;;;;15.02;3.75;;;;;;;14.47;86.38;102350.31;5051188;28;20113;-82
2021/09/28 08:46:56;;;;;;;13.07;3.17;;;;;;;14.54;86.51;102356.66;5066762;28;20459;-82
2021/09/28 08:49:41;;;;;;;15.25;3.20;;;;;;;14.63;86.38;102355.16;5053405;28;20076;-81
2021/09/28 08:52:07;;;;;;;17.45;2.95;;;;;;;14.74;86.55;102355.41;5050581;28;20061;-78
2021/09/28 08:54:33;;;;;;;15.18;2.67;;;;;;;14.80;85.92;102352.91;5053495;28;20158;-82
2021/09/28 08:56:59;;;;;;;7.38;2.40;;;;;;;14.92;85.29;102351.41;5046179;28;20044;-81
2021/09/28 08:59:48;;;;;;;14.05;2.33;;;;;;;15.03;84.50;102347.25;5050155;28;20498;-80
2021/09/28 09:02:14;;;;;;;15.75;2.53;;;;;;;15.14;82.75;102345.72;5048529;28;20446;-76
2021/09/28 09:04:40;;;;;;;14.27;2.17;;;;;;;15.24;81.75;102340.63;5045254;28;20036;-81
2021/09/28 09:07:28;;;;;;;10.27;2.10;;;;;;;15.33;81.53;102340.81;5049228;28;20043;-78
2021/09/28 09:09:53;;;;;;;10.93;2.20;;;;;;;15.42;81.27;102340.09;5050069;28;20028;-81
2021/09/28 09:12:59;;;;;;;16.38;2.97;;;;;;;15.49;78.50;102340.28;5050986;28;20036;-78
2021/09/28 09:15:53;;;;;;;13.05;1.90;;;;;;;15.54;79.03;102334.16;5032956;28;20480;-81
2021/09/28 09:18:21;;;;;;;15.77;2.58;;;;;;;15.58;77.46;102330.69;5049579;28;20159;-79
2021/09/28 09:20:47;;;;;;;13.25;2.60;;;;;;;15.62;77.96;102332.56;5032597;28;20491;-81
2021/09/28 09:23:35;;;;;;;13.38;1.88;;;;;;;15.71;77.40;102327.44;5048103;28;20037;-79
2021/09/28 09:26:03;;;;;;;14.00;3.22;;;;;;;15.80;77.40;102327.66;5045101;28;20047;-78
2021/09/28 09:28:33;;;;;;;11.85;2.10;;;;;;;15.93;77.32;102318.13;5049101;28;20025;-82
2021/09/28 09:31:32;;;;;;;12.65;2.30;;;;;;;16.08;76.99;102317.50;5050278;28;20021;-78
2021/09/28 09:34:19;;;;;;;14.35;2.13;;;;;;;16.29;76.86;102318.72;5051328;28;20041;-78
2021/09/28 09:37:06;;;;;;;16.65;1.95;;;;;;;16.48;74.21;102304.91;5063044;28;20029;-81
2021/09/28 09:40:06;;;;;;;15.88;2.38;;;;;;;16.63;74.75;102308.63;5049854;28;20040;-80
2021/09/28 09:42:32;;;;;;;10.38;2.22;;;;;;;16.77;72.81;102293.78;5043074;28;20591;-80
2021/09/28 09:45:17;;;;;;;12.63;2.65;;;;;;;16.99;71.73;102291.47;5054531;28;20141;-79
2021/09/28 09:47:45;;;;;;;17.38;2.88;;;;;;;17.21;71.26;102294.41;5048976;28;20032;-79
2021/09/28 09:50:13;;;;;;;11.10;2.25;;;;;;;17.44;68.83;102279.56;5051023;28;20048;-81
2021/09/28 09:52:59;;;;;;;16.95;2.97;;;;;;;17.95;68.35;102289.91;5049298;28;20039;-80
2021/09/28 09:55:47;;;;;;;17.52;3.38;;;;;;;18.37;65.58;102275.16;5051646;28;20041;-82
2021/09/28 09:58:13;;;;;;;16.13;2.47;;;;;;;19.11;63.54;102272.00;5045680;28;20060;-81
2021/09/28 10:00:41;;;;;;;10.82;2.05;;;;;;;19.59;62.20;102274.81;5046865;28;20057;-80
2021/09/28 10:03:10;;;;;;;10.75;2.22;;;;;;;20.60;58.90;102267.72;5046611;28;20082;-81
2021/09/28 10:05:38;;;;;;;15.73;1.88;;;;;;;21.71;54.08;102261.88;5049469;28;20578;-80
2021/09/28 10:08:25;;;;;;;14.00;2.47;;;;;;;22.62;51.07;102255.72;5049867;28;20049;-79
2021/09/28 10:11:15;;;;;;;10.85;1.77;;;;;;;23.48;47.63;102253.75;5049614;28;20045;-80
2021/09/28 10:14:34;;;;;;;12.13;2.80;;;;;;;22.97;49.06;102250.84;5030956;28;20064;-82
2021/09/28 10:17:01;;;;;;;8.88;2.58;;;;;;;23.69;47.04;102244.44;5041057;28;20041;-78
2021/09/28 10:19:40;;;;;;;8.88;2.53;;;;;;;23.81;47.56;102246.06;5052626;28;20029;-82
2021/09/28 10:22:08;;;;;;;11.95;3.10;;;;;;;24.28;45.60;102237.22;5046928;28;20020;-82
2021/09/28 10:24:34;;;;;;;12.35;2.38;;;;;;;23.63;47.62;102235.59;5052463;28;20060;-81
2021/09/28 10:27:03;;;;;;;13.18;2.42;;;;;;;23.90;46.51;102228.91;5054057;28;20037;-80
2021/09/28 10:29:52;;;;;;;8.57;2.08;;;;;;;25.34;44.07;102237.78;5051555;28;20032;-82
2021/09/28 10:32:44;;;;;;;;;;;;;;;;;;;;;
2021/09/28 10:35:14;;;;;;;14.02;2.88;;;;;;;24.12;45.15;102232.13;5051882;28;20242;-80
2021/09/28 10:38:18;;;;;;;11.82;2.40;;;;;;;24.56;44.92;102233.06;5053664;28;20039;-78
2021/09/28 10:40:46;;;;;;;14.85;2.50;;;;;;;24.02;44.67;102222.44;5049177;28;20044;-84
2021/09/28 10:43:44;;;;;;;11.02;2.08;;;;;;;24.92;42.95;102219.81;5054212;28;20032;-81
2021/09/28 10:46:09;;;;;;;9.63;2.08;;;;;;;25.63;41.70;102216.44;5051650;28;20029;-81
2021/09/28 10:48:36;;;;;;;11.60;2.83;;;;;;;25.31;40.42;102205.44;5055031;28;20150;-75
2021/09/28 10:51:09;;;;;;;10.93;2.75;;;;;;;25.54;40.69;102204.97;5032050;28;20065;-76
2021/09/28 10:53:36;;;;;;;9.80;2.00;;;;;;;25.65;40.99;102203.78;5052662;28;20063;-77
2021/09/28 10:56:14;;;;;;;10.50;2.53;;;;;;;24.44;42.31;102195.63;5052443;28;20544;-74
2021/09/28 10:58:57;;;;;;;10.65;2.92;;;;;;;23.69;44.89;102195.19;5050657;28;20029;-75
2021/09/28 11:01:31;;;;;;;9.05;2.30;;;;;;;23.84;43.65;102200.31;5052441;28;20063;-76
2021/09/28 11:03:58;;;;;;;12.73;2.30;;;;;;;24.46;43.40;102201.91;5050290;28;20055;-78
2021/09/28 11:06:42;;;;;;;12.52;2.20;;;;;;;24.53;41.26;102182.00;5051107;28;20032;-75
2021/09/28 11:09:08;;;;;;;9.98;2.50;;;;;;;24.35;41.87;102185.97;5048225;28;20082;-76
2021/09/28 11:11:34;;;;;;;12.07;2.50;;;;;;;23.46;43.32;102185.72;5053177;28;20068;-77
2021/09/28 11:14:01;;;;;;;11.23;2.08;;;;;;;22.79;45.48;102187.53;5052660;28;20102;-77
2021/09/28 11:16:27;;;;;;;8.10;1.80;;;;;;;23.23;45.12;102188.75;5054140;28;20363;-79
2021/09/28 11:19:18;;;;;;;8.27;2.05;;;;;;;23.95;43.10;102183.16;5042078;28;20028;-82
2021/09/28 11:22:05;;;;;;;8.30;1.88;;;;;;;24.44;43.36;102187.56;5052062;28;20056;-79
2021/09/28 11:24:31;;;;;;;11.48;1.98;;;;;;;25.24;38.95;102176.88;5052064;28;20044;-78
2021/09/28 11:27:09;;;;;;;11.80;2.17;;;;;;;25.52;39.68;102171.75;5052725;28;20024;-79
2021/09/28 11:29:40;;;;;;;8.43;2.55;;;;;;;25.98;39.77;102168.75;5051180;28;20119;-78
2021/09/28 11:32:26;;;;;;;7.80;1.85;;;;;;;26.12;37.26;102155.81;5049118;28;20127;-78
2021/09/28 11:35:02;;;;;;;9.35;2.03;;;;;;;26.25;37.70;102154.56;5052158;28;20036;-80
2021/09/28 11:37:30;;;;;;;9.60;1.65;;;;;;;25.12;39.02;102140.34;5053915;28;20056;-79
2021/09/28 11:39:56;;;;;;;19.15;2.42;;;;;;;24.39;39.52;102141.03;5044925;28;20033;-80
2021/09/28 11:42:41;;;;;;;10.50;1.95;;;;;;;25.51;39.63;102145.72;5058557;28;20044;-81
2021/09/28 11:45:07;;;;;;;7.97;2.00;;;;;;;25.81;37.17;102144.97;5050216;28;20040;-79
2021/09/28 11:47:40;;;;;;;29.73;2.30;;;;;;;25.71;36.89;102145.19;5052587;28;20024;-81
2021/09/28 11:50:06;;;;;;;7.65;1.90;;;;;;;25.76;37.92;102150.50;5048848;28;20116;-81
2021/09/28 11:52:35;;;;;;;8.70;2.65;;;;;;;26.20;36.60;102143.00;5051486;28;20115;-78
2021/09/28 11:55:00;;;;;;;9.82;1.90;;;;;;;25.92;35.61;102138.38;5052652;28;20212;-80
2021/09/28 11:57:46;;;;;;;10.02;1.85;;;;;;;26.19;34.88;102124.16;5051032;28;20131;-77
2021/09/28 12:00:12;;;;;;;6.53;1.52;;;;;;;26.54;33.49;102103.34;5044211;28;20060;-82
2021/09/28 12:02:38;;;;;;;9.57;1.42;;;;;;;26.08;33.54;102111.84;5049607;28;20487;-81
2021/09/28 12:08:00;;;;;;;8.77;2.35;;;;;;;25.61;36.01;102116.75;5044456;28;20103;-82
2021/09/28 12:10:45;;;;;;;11.35;2.22;;;;;;;24.79;36.43;102107.03;5058191;28;20048;-78
2021/09/28 12:13:27;;;;;;;8.35;1.70;;;;;;;24.04;39.76;102105.00;5050565;28;20106;-81
2021/09/28 12:16:06;;;;;;;7.75;1.80;;;;;;;24.10;37.94;102104.84;5048911;28;20048;-80
2021/09/28 12:18:31;;;;;;;8.65;1.77;;;;;;;24.50;37.88;102108.50;5053948;28;20601;-80
2021/09/28 12:21:35;;;;;;;9.10;1.33;;;;;;;24.99;35.82;102091.28;5051701;28;20040;-79
2021/09/28 12:24:39;;;;;;;7.72;1.95;;;;;;;25.17;35.19;102092.63;5050889;28;20048;-80
2021/09/28 12:27:05;;;;;;;;;;;;;;;25.44;35.44;102087.50;5052234;28;20051;-79
2021/09/28 12:29:57;;;;;;;10.85;1.45;;;;;;;25.54;34.02;102086.38;5056018;28;19962;-79
2021/09/28 12:32:49;;;;;;;5.43;1.35;;;;;;;24.40;36.11;102078.22;5052887;28;20033;-81
2021/09/28 12:35:36;;;;;;;6.88;1.60;;;;;;;22.94;38.39;102079.06;5052213;28;20055;-81
2021/09/28 12:38:04;;;;;;;8.27;1.60;;;;;;;22.65;40.91;102088.44;5049502;28;20136;-79
2021/09/28 12:40:33;;;;;;;9.68;1.70;;;;;;;22.90;38.93;102089.00;5050029;28;20067;-79
2021/09/28 12:43:21;;;;;;;7.45;1.15;;;;;;;22.40;41.15;102080.75;5054535;28;20033;-79
2021/09/28 12:45:52;;;;;;;6.10;1.50;;;;;;;23.04;41.14;102091.44;5039294;28;20078;-78
2021/09/28 12:48:32;;;;;;;6.07;1.70;;;;;;;23.90;41.24;102086.44;5048885;28;20079;-79
2021/09/28 12:51:27;;;;;;;9.80;2.17;;;;;;;24.11;36.93;102073.50;5052378;28;20025;-77
2021/09/28 12:53:53;;;;;;;9.40;1.63;;;;;;;23.74;38.21;102075.06;5051707;28;20097;-77
2021/09/28 12:56:18;;;;;;;5.80;1.20;;;;;;;22.94;40.55;102076.38;5052397;28;20108;-78
2021/09/28 12:58:44;;;;;;;9.65;1.60;;;;;;;22.47;42.37;102070.81;5046522;28;20033;-80
2021/09/28 13:01:09;;;;;;;11.15;2.38;;;;;;;22.88;40.87;102066.63;5047439;28;20043;-79
2021/09/28 13:03:56;;;;;;;10.90;2.10;;;;;;;22.60;41.15;102064.38;5048510;28;20056;-78
2021/09/28 13:06:21;;;;;;;4.68;1.23;;;;;;;21.82;44.13;102067.06;5053743;28;20130;-80
2021/09/28 13:08:47;;;;;;;11.63;2.00;;;;;;;21.44;43.14;102062.09;5039762;28;20504;-81
2021/09/28 13:11:15;;;;;;;11.32;1.98;;;;;;;21.18;44.33;102072.13;5045321;28;20029;-80
2021/09/28 13:13:41;;;;;;;7.28;1.67;;;;;;;20.65;46.74;102068.00;5053242;28;20044;-80
2021/09/28 13:16:07;;;;;;;8.33;1.77;;;;;;;20.91;46.83;102069.66;5049996;28;20032;-79
2021/09/28 13:18:32;;;;;;;7.38;1.65;;;;;;;21.86;44.60;102079.53;5049859;28;20241;-81
2021/09/28 13:20:57;;;;;;;6.38;1.52;;;;;;;22.37;42.07;102072.75;5051908;28;20028;-80
2021/09/28 13:23:23;;;;;;;5.65;1.55;;;;;;;22.65;39.88;102049.06;5054121;28;20426;-78
2021/09/28 13:25:49;;;;;;;8.38;1.42;;;;;;;22.69;41.14;102049.94;5051402;28;20031;-79
2021/09/28 13:28:14;;;;;;;8.75;1.33;;;;;;;23.00;40.41;102050.34;5033412;28;20124;-80
2021/09/28 13:30:45;;;;;;;8.20;1.50;;;;;;;23.43;39.59;102042.47;5050444;28;20033;-80
2021/09/28 13:33:10;;;;;;;6.40;1.70;;;;;;;23.34;39.54;102040.88;5052497;28;20087;-80
2021/09/28 13:35:36;;;;;;;7.47;1.58;;;;;;;23.96;37.63;102037.06;5052333;28;20100;-80
2021/09/28 13:38:04;;;;;;;10.40;1.48;;;;;;;24.52;36.31;102029.53;5051055;28;20111;-78
2021/09/28 13:40:34;;;;;;;5.53;1.50;;;;;;;23.85;37.97;102034.53;5052395;28;20093;-79
2021/09/28 13:43:00;;;;;;;6.30;1.40;;;;;;;24.24;37.92;102034.63;5053083;28;20033;-80
2021/09/28 13:45:25;;;;;;;3.78;1.10;;;;;;;23.74;38.11;102022.19;5034118;28;20040;-81
2021/09/28 13:47:51;;;;;;;6.55;1.17;;;;;;;23.64;37.83;102019.72;5050586;28;20065;-79
2021/09/28 13:50:16;;;;;;;8.43;1.60;;;;;;;24.03;36.83;102020.72;5052631;28;20024;-80
2021/09/28 13:52:42;;;;;;;6.00;1.50;;;;;;;23.65;39.04;102019.69;5048995;28;20033;-80
2021/09/28 13:55:09;;;;;;;8.07;1.60;;;;;;;23.41;39.74;102018.34;5051357;28;20028;-78
2021/09/28 13:57:35;;;;;;;7.43;0.82;;;;;;;23.30;39.94;102012.28;5053341;28;20112;-82
2021/09/28 14:00:20;;;;;;;6.72;1.63;;;;;;;22.82;40.17;102008.56;5048418;28;20076;-80
2021/09/28 14:02:49;;;;;;;7.60;1.50;;;;;;;21.62;40.26;102011.03;5056564;28;20086;-80
2021/09/28 14:05:18;;;;;;;4.70;1.10;;;;;;;21.31;41.10;102010.44;5057787;28;20135;-77
2021/09/28 14:07:43;;;;;;;4.65;1.20;;;;;;;20.44;44.46;102011.06;5055665;28;20063;-78
2021/09/28 14:10:29;;;;;;;6.60;1.38;;;;;;;20.21;45.37;102014.75;5055810;28;20033;-78
2021/09/28 14:12:54;;;;;;;7.43;1.98;;;;;;;20.01;45.48;102012.16;5048690;28;20021;-79
2021/09/28 14:15:20;;;;;;;3.92;1.17;;;;;;;19.67;47.39;102014.03;5055080;28;20071;-80
2021/09/28 14:17:45;;;;;;;6.35;1.73;;;;;;;19.55;47.37;102015.81;5054973;28;20104;-80
2021/09/28 14:20:11;;;;;;;9.27;1.77;;;;;;;19.43;47.92;102012.31;5054492;28;20028;-79
2021/09/28 14:22:36;;;;;;;6.07;1.48;;;;;;;19.25;50.29;102024.78;5055182;28;20021;-79
2021/09/28 14:25:25;;;;;;;5.95;1.38;;;;;;;19.29;49.50;102020.31;5054894;28;20025;-78
2021/09/28 14:27:51;;;;;;;4.90;1.05;;;;;;;19.34;48.88;102015.84;5036752;28;20040;-78
2021/09/28 14:30:16;;;;;;;7.35;1.00;;;;;;;19.38;48.66;102009.63;5052035;28;20020;-79
2021/09/28 14:32:42;;;;;;;4.50;1.38;;;;;;;19.21;48.84;102001.66;5055627;28;20107;-80
2021/09/28 14:35:27;;;;;;;9.23;2.00;;;;;;;19.09;49.73;102007.00;5055592;28;20024;-79
2021/09/28 14:37:53;;;;;;;13.40;1.83;;;;;;;19.12;48.14;102007.88;5058482;28;20102;-78
2021/09/28 14:40:18;;;;;;;8.60;1.30;;;;;;;18.89;49.33;101993.66;5053648;28;20025;-80
2021/09/28 14:42:43;;;;;;;6.45;1.25;;;;;;;19.13;49.35;102003.44;5051605;28;20044;-80
2021/09/28 14:45:09;;;;;;;5.20;1.33;;;;;;;19.32;47.73;101993.63;5051888;28;20387;-80
2021/09/28 14:47:35;;;;;;;4.45;1.98;;;;;;;19.53;48.24;101988.25;5053850;28;20463;-78
2021/09/28 14:50:20;;;;;;;12.45;1.75;;;;;;;19.98;48.45;101990.81;5053298;28;20437;-78
2021/09/28 14:52:46;;;;;;;7.35;1.63;;;;;;;20.35;47.25;101984.41;5048525;28;20028;-81
2021/09/28 14:55:32;;;;;;;6.28;1.55;;;;;;;20.47;46.29;101984.31;5051202;28;20070;-78
2021/09/28 14:57:57;;;;;;;7.72;1.70;;;;;;;20.30;46.94;101976.38;5053438;28;20104;-79
2021/09/28 15:00:23;;;;;;;8.30;1.40;;;;;;;20.17;46.43;101980.94;5055096;28;20119;-80
2021/09/28 15:02:48;;;;;;;4.25;1.48;;;;;;;19.76;47.12;101979.28;5052052;28;20040;-78
2021/09/28 15:05:14;;;;;;;10.38;1.95;;;;;;;19.41;47.42;101972.28;5038718;28;20025;-78
2021/09/28 15:07:39;;;;;;;6.82;1.63;;;;;;;19.37;48.70;101978.47;5050728;28;20014;-78
2021/09/28 15:10:06;;;;;;;12.07;1.77;;;;;;;19.21;48.99;101967.84;5050202;28;20036;-79
2021/09/28 15:16:28;;;;;;;6.32;1.73;;;;;;;18.66;50.40;101962.50;4994049;28;20026;-84
2021/09/28 15:18:55;;;;;;;12.20;1.95;;;;;;;18.70;51.32;101967.81;5017582;28;20148;-80
2021/09/28 15:21:21;;;;;;;3.85;1.77;;;;;;;18.74;51.50;101965.16;5052957;28;20494;-80
2021/09/28 15:24:07;;;;;;;6.13;1.50;;;;;;;18.81;50.76;101959.81;5053119;28;20025;-81
2021/09/28 15:26:32;;;;;;;9.15;1.45;;;;;;;18.85;51.13;101958.94;5057872;28;20085;-79
2021/09/28 15:29:00;;;;;;;6.90;1.73;;;;;;;18.77;51.40;101962.50;5056233;28;20149;-79
2021/09/28 15:31:30;;;;;;;8.18;1.48;;;;;;;18.76;51.45;101961.63;5054127;28;20029;-80
2021/09/28 15:34:16;;;;;;;7.72;1.60;;;;;;;18.70;52.00;101961.59;5052832;28;20037;-78
2021/09/28 15:36:41;;;;;;;5.78;1.73;;;;;;;18.54;51.87;101964.25;5053580;28;20115;-78
2021/09/28 15:39:08;;;;;;;6.13;1.83;;;;;;;18.39;52.51;101964.22;5053156;28;20033;-78
2021/09/28 15:41:34;;;;;;;6.45;1.67;;;;;;;18.33;52.89;101964.22;5051960;28;20382;-79
2021/09/28 15:44:42;;;;;;;9.35;2.03;;;;;;;18.13;54.48;101965.03;5052544;28;20118;-80
2021/09/28 15:47:41;;;;;;;10.07;1.67;;;;;;;17.97;53.73;101957.88;5051384;28;20033;-82
2021/09/28 15:50:27;;;;;;;7.18;1.63;;;;;;;17.80;54.03;101950.69;5031136;28;20079;-80
2021/09/28 15:53:12;;;;;;;9.32;2.00;;;;;;;17.73;55.76;101954.22;5030956;28;21377;-80
2021/09/28 15:55:40;;;;;;;8.35;1.58;;;;;;;17.78;55.43;101949.78;5033164;28;20121;-81
2021/09/28 15:58:05;;;;;;;8.70;1.92;;;;;;;17.81;54.82;101947.16;5032854;28;20029;-78
2021/09/28 16:00:51;;;;;;;7.80;1.58;;;;;;;17.83;55.80;101950.69;5028913;28;20120;-80
2021/09/28 16:03:21;;;;;;;8.10;1.63;;;;;;;17.89;54.90;101951.59;5022318;28;20052;-80
2021/09/28 16:06:03;;;;;;;7.45;1.55;;;;;;;17.95;55.72;101938.38;5032410;28;20087;-81
2021/09/28 16:49:08;;;;;;;6.90;1.20;;;;;;;16.94;57.25;101907.63;4833062;29;20057;-81
2021/09/28 16:52:49;;;;;;;;;;;;;;;;;;;;;
2021/09/28 17:11:39;;;;;;;;;;;;;;;;;;;;;
2021/09/28 17:18:16;;;;;;;;;;;;;;;;;;;;;
2021/09/28 17:21:30;;;;;;;8.63;1.20;;;;;;;16.54;60.02;101907.28;4821446;29;20042;-83
2021/09/28 17:29:09;;;;;;;;;;;;;;;;;;;;;
2021/09/28 17:32:23;;;;;;;5.05;1.55;;;;;;;16.38;60.64;101914.22;4860331;29;20124;-83
2021/09/28 17:35:29;;;;;;;8.83;1.63;;;;;;;16.32;60.81;101912.38;4896714;29;20036;-84
2021/09/28 18:00:44;;;;;;;;;;;;;;;;;;;;;
2021/09/28 18:04:00;;;;;;;4.45;1.48;;;;;;;15.50;67.08;101920.25;4890777;29;20071;-83
2021/09/28 18:07:46;;;;;;;;;;;;;;;;;;;;;
2021/09/28 18:14:42;;;;;;;3.95;1.02;;;;;;;15.22;69.58;101918.97;4845153;29;20625;-81
2021/09/28 18:17:54;;;;;;;5.10;1.52;;;;;;;15.12;70.65;101917.94;4835535;28;20041;-82
2021/09/28 18:21:07;;;;;;;4.78;1.38;;;;;;;15.04;70.81;101916.94;4895531;28;20386;-83
2021/09/28 18:35:31;;;;;;;;;;;;;;;;;;;;;
2021/09/28 18:38:46;;;;;;;6.90;1.70;;;;;;;14.58;73.55;101919.72;4964294;28;20044;-83
2021/09/28 18:46:03;;;;;;;7.93;2.00;;;;;;;14.45;74.60;101920.34;4989882;28;20382;-80
2021/09/28 18:53:27;;;;;;;;;;;;;;;;;;;;;
2021/09/28 19:00:53;;;;;;;;;;;;;;;;;;;;;
2021/09/28 19:22:41;;;;;;;10.20;1.88;;;;;;;14.22;77.63;101919.94;4860526;29;20125;-81
2021/09/28 19:36:42;;;;;;;4.95;1.75;;;;;;;13.91;79.56;101909.63;4862761;29;20418;-82
2021/09/28 19:47:45;;;;;;;6.35;2.08;;;;;;;13.62;81.07;101904.63;4913608;29;20043;-82
2021/09/28 20:50:40;;;;;;;10.40;2.70;;;;;;;13.03;85.58;101831.06;4719218;30;20076;-89
2021/09/28 20:53:09;;;;;;;9.17;2.53;;;;;;;13.03;85.61;101839.00;4744484;29;20486;-79
2021/09/28 20:55:34;;;;;;;6.63;2.53;;;;;;;13.04;85.60;101835.50;4867511;29;20033;-79
2021/09/28 20:58:00;;;;;;;12.48;3.03;;;;;;;13.06;85.40;101836.44;4963546;28;20500;-79
2021/09/28 21:00:28;;;;;;;8.57;2.92;;;;;;;13.07;85.65;101832.91;5023779;28;20045;-78
2021/09/28 21:02:55;;;;;;;6.85;2.53;;;;;;;13.06;85.66;101825.88;5027311;28;20021;-79
2021/09/28 21:05:21;;;;;;;10.18;2.85;;;;;;;13.06;85.82;101825.88;5025091;28;20025;-79
2021/09/28 21:08:06;;;;;;;9.35;2.95;;;;;;;13.04;86.27;101826.69;5009055;28;20024;-78
2021/09/28 21:10:32;;;;;;;8.38;2.70;;;;;;;13.02;86.02;101818.69;5022812;28;20045;-81
2021/09/28 21:12:57;;;;;;;4.88;2.63;;;;;;;13.02;86.09;101818.69;5027582;28;20032;-79
2021/09/28 21:15:28;;;;;;;5.60;3.05;;;;;;;13.02;86.23;101815.19;5030582;28;20483;-80
2021/09/28 21:18:14;;;;;;;17.00;3.30;;;;;;;13.04;86.33;101817.00;5030322;28;20383;-83
2021/09/28 21:20:44;;;;;;;6.65;2.88;;;;;;;13.03;86.69;101804.66;5026674;28;20164;-80
2021/09/28 21:23:10;;;;;;;6.75;3.30;;;;;;;13.04;86.63;101809.06;5014729;28;20029;-79
2021/09/28 21:25:35;;;;;;;5.25;2.60;;;;;;;13.05;86.45;101813.50;5031148;28;20037;-79
2021/09/28 21:28:01;;;;;;;6.78;2.72;;;;;;;13.05;86.39;101808.22;5029689;28;20439;-78
2021/09/28 21:30:27;;;;;;;8.85;3.25;;;;;;;13.05;86.37;101813.50;5028664;28;20048;-79
2021/09/28 21:33:02;;;;;;;5.43;2.90;;;;;;;13.04;86.44;101811.72;5029732;28;20064;-81